sensor_id;sensor_type;location;lat;lon;timestamp;pressure;altitude;pressure_sealevel;temperature;humidity
51928;BME280;37953;52.806;18.270;2024-01-27T00:00:40;100686.50;;;5.82;100.00
51928;BME280;37953;52.806;18.270;2024-01-27T00:03:26;100674.47;;;5.81;100.00
51928;BME280;37953;52.806;18.270;2024-01-27T00:05:52;100684.78;;;5.81;100.00
51928;BME280;37953;52.806;18.270;2024-01-27T00:08:19;100681.28;;;5.79;100.00
51928;BME280;37953;52.806;18.270;2024-01-27T00:10:45;100692.41;;;5.78;100.00
51928;BME280;37953;52.806;18.270;2024-01-27T00:13:12;100696.75;;;5.79;100.00
51928;BME280;37953;52.806;18.270;2024-01-27T00:15:38;100701.00;;;5.77;100.00
51928;BME280;37953;52.806;18.270;2024-01-27T00:18:05;100702.72;;;5.78;100.00
51928;BME280;37953;52.806;18.270;2024-01-27T00:20:30;100713.09;;;5.79;100.00
51928;BME280;37953;52.806;18.270;2024-01-27T00:22:57;100709.63;;;5.79;100.00
51928;BME280;37953;52.806;18.270;2024-01-27T00:25:23;100704.47;;;5.79;100.00
51928;BME280;37953;52.806;18.270;2024-01-27T00:27:49;100707.88;;;5.78;100.00
51928;BME280;37953;52.806;18.270;2024-01-27T00:30:15;100713.88;;;5.77;100.00
51928;BME280;37953;52.806;18.270;2024-01-27T00:32:41;100714.69;;;5.76;100.00
51928;BME280;37953;52.806;18.270;2024-01-27T00:35:07;100713.75;;;5.72;100.00
51928;BME280;37953;52.806;18.270;2024-01-27T00:37:35;100719.84;;;5.74;100.00
51928;BME280;37953;52.806;18.270;2024-01-27T00:40:01;100719.72;;;5.71;100.00
51928;BME280;37953;52.806;18.270;2024-01-27T00:42:27;100730.94;;;5.71;100.00
51928;BME280;37953;52.806;18.270;2024-01-27T00:44:53;100720.63;;;5.71;100.00
51928;BME280;37953;52.806;18.270;2024-01-27T00:47:19;100722.28;;;5.69;100.00
51928;BME280;37953;52.806;18.270;2024-01-27T00:49:45;100722.28;;;5.69;100.00
51928;BME280;37953;52.806;18.270;2024-01-27T00:52:12;100720.59;;;5.70;100.00
51928;BME280;37953;52.806;18.270;2024-01-27T00:54:38;100730.84;;;5.68;100.00
51928;BME280;37953;52.806;18.270;2024-01-27T00:57:04;100717.97;;;5.68;100.00
51928;BME280;37953;52.806;18.270;2024-01-27T00:59:30;100729.94;;;5.66;100.00
51928;BME280;37953;52.806;18.270;2024-01-27T01:01:56;100729.94;;;5.66;100.00
51928;BME280;37953;52.806;18.270;2024-01-27T01:04:22;100726.50;;;5.66;100.00
51928;BME280;37953;52.806;18.270;2024-01-27T01:06:49;100743.56;;;5.62;100.00
51928;BME280;37953;52.806;18.270;2024-01-27T01:09:14;100725.56;;;5.64;100.00
51928;BME280;37953;52.806;18.270;2024-01-27T01:11:41;100719.50;;;5.62;100.00
51928;BME280;37953;52.806;18.270;2024-01-27T01:14:07;100725.56;;;5.64;100.00
51928;BME280;37953;52.806;18.270;2024-01-27T01:16:33;100729.00;;;5.64;100.00
51928;BME280;37953;52.806;18.270;2024-01-27T01:18:59;100717.88;;;5.65;100.00
51928;BME280;37953;52.806;18.270;2024-01-27T01:21:26;100738.47;;;5.64;100.00
51928;BME280;37953;52.806;18.270;2024-01-27T01:24:01;100724.78;;;5.66;100.00
51928;BME280;37953;52.806;18.270;2024-01-27T01:26:28;100726.38;;;5.63;100.00
51928;BME280;37953;52.806;18.270;2024-01-27T01:28:54;100734.16;;;5.64;100.00
51928;BME280;37953;52.806;18.270;2024-01-27T01:31:20;100727.28;;;5.63;100.00
51928;BME280;37953;52.806;18.270;2024-01-27T01:33:46;100742.75;;;5.63;100.00
51928;BME280;37953;52.806;18.270;2024-01-27T01:36:12;100738.47;;;5.64;100.00
51928;BME280;37953;52.806;18.270;2024-01-27T01:38:38;100742.75;;;5.65;100.00
51928;BME280;37953;52.806;18.270;2024-01-27T01:41:04;100742.75;;;5.65;100.00
51928;BME280;37953;52.806;18.270;2024-01-27T01:43:30;100735.88;;;5.64;100.00
51928;BME280;37953;52.806;18.270;2024-01-27T01:46:01;100728.38;;;5.71;100.00
51928;BME280;37953;52.806;18.270;2024-01-27T01:48:26;100736.00;;;5.68;100.00
51928;BME280;37953;52.806;18.270;2024-01-27T01:50:53;100738.53;;;5.67;100.00
51928;BME280;37953;52.806;18.270;2024-01-27T01:53:19;100732.44;;;5.63;100.00
51928;BME280;37953;52.806;18.270;2024-01-27T01:55:45;100723.00;;;5.64;100.00
51928;BME280;37953;52.806;18.270;2024-01-27T01:58:15;100735.94;;;5.65;100.00
51928;BME280;37953;52.806;18.270;2024-01-27T02:00:41;100724.72;;;5.63;100.00
51928;BME280;37953;52.806;18.270;2024-01-27T02:03:11;100726.38;;;5.61;100.00
51928;BME280;37953;52.806;18.270;2024-01-27T02:05:39;100721.22;;;5.61;100.00
51928;BME280;37953;52.806;18.270;2024-01-27T02:08:05;100729.81;;;5.62;100.00
51928;BME280;37953;52.806;18.270;2024-01-27T02:10:32;100723.78;;;5.61;100.00
51928;BME280;37953;52.806;18.270;2024-01-27T02:13:22;100716.97;;;5.63;100.00
51928;BME280;37953;52.806;18.270;2024-01-27T02:15:49;100710.91;;;5.61;100.00
51928;BME280;37953;52.806;18.270;2024-01-27T02:18:16;100705.69;;;5.60;100.00
51928;BME280;37953;52.806;18.270;2024-01-27T02:20:42;100705.63;;;5.57;100.00
51928;BME280;37953;52.806;18.270;2024-01-27T02:23:08;100700.47;;;5.57;100.00
51928;BME280;37953;52.806;18.270;2024-01-27T02:25:35;100700.47;;;5.57;100.00
51928;BME280;37953;52.806;18.270;2024-01-27T02:28:01;100702.16;;;5.56;100.00
51928;BME280;37953;52.806;18.270;2024-01-27T02:30:33;100699.56;;;5.55;100.00
51928;BME280;37953;52.806;18.270;2024-01-27T02:32:59;100697.81;;;5.54;100.00
51928;BME280;37953;52.806;18.270;2024-01-27T02:35:26;100703.00;;;5.55;100.00
51928;BME280;37953;52.806;18.270;2024-01-27T02:37:52;100701.28;;;5.56;100.00
51928;BME280;37953;52.806;18.270;2024-01-27T02:40:18;100691.84;;;5.56;100.00
51928;BME280;37953;52.806;18.270;2024-01-27T02:42:44;100695.31;;;5.57;100.00
51928;BME280;37953;52.806;18.270;2024-01-27T02:45:10;100703.88;;;5.56;100.00
51928;BME280;37953;52.806;18.270;2024-01-27T02:47:37;100694.44;;;5.56;100.00
51928;BME280;37953;52.806;18.270;2024-01-27T02:50:04;100685.03;;;5.57;100.00
51928;BME280;37953;52.806;18.270;2024-01-27T02:52:32;100679.88;;;5.57;100.00
51928;BME280;37953;52.806;18.270;2024-01-27T02:54:58;100691.00;;;5.56;100.00
51928;BME280;37953;52.806;18.270;2024-01-27T02:57:24;100687.59;;;5.57;100.00
51928;BME280;37953;52.806;18.270;2024-01-27T02:59:50;100681.53;;;5.56;100.00
51928;BME280;37953;52.806;18.270;2024-01-27T03:02:16;100693.63;;;5.57;100.00
51928;BME280;37953;52.806;18.270;2024-01-27T03:04:45;100697.91;;;5.58;100.00
51928;BME280;37953;52.806;18.270;2024-01-27T03:07:11;100685.94;;;5.60;100.00
51928;BME280;37953;52.806;18.270;2024-01-27T03:09:37;100695.44;;;5.61;100.00
51928;BME280;37953;52.806;18.270;2024-01-27T03:12:03;100702.25;;;5.59;100.00
51928;BME280;37953;52.806;18.270;2024-01-27T03:14:30;100688.53;;;5.60;100.00
51928;BME280;37953;52.806;18.270;2024-01-27T03:16:56;100700.53;;;5.60;100.00
51928;BME280;37953;52.806;18.270;2024-01-27T03:19:22;100701.41;;;5.60;100.00
51928;BME280;37953;52.806;18.270;2024-01-27T03:21:48;100693.69;;;5.60;100.00
51928;BME280;37953;52.806;18.270;2024-01-27T03:24:14;100687.66;;;5.60;100.00
51928;BME280;37953;52.806;18.270;2024-01-27T03:26:40;100694.53;;;5.61;100.00
51928;BME280;37953;52.806;18.270;2024-01-27T03:29:06;100696.25;;;5.60;100.00
51928;BME280;37953;52.806;18.270;2024-01-27T03:31:33;100698.78;;;5.57;100.00
51928;BME280;37953;52.806;18.270;2024-01-27T03:34:02;100692.75;;;5.58;100.00
51928;BME280;37953;52.806;18.270;2024-01-27T03:36:29;100697.06;;;5.58;100.00
51928;BME280;37953;52.806;18.270;2024-01-27T03:38:57;100707.38;;;5.58;100.00
51928;BME280;37953;52.806;18.270;2024-01-27T03:41:23;100702.22;;;5.58;100.00
51928;BME280;37953;52.806;18.270;2024-01-27T03:43:49;100695.34;;;5.58;100.00
51928;BME280;37953;52.806;18.270;2024-01-27T03:46:16;100700.47;;;5.57;100.00
51928;BME280;37953;52.806;18.270;2024-01-27T03:48:42;100703.91;;;5.57;100.00
51928;BME280;37953;52.806;18.270;2024-01-27T03:51:08;100705.66;;;5.58;100.00
51928;BME280;37953;52.806;18.270;2024-01-27T03:53:34;100701.22;;;5.53;100.00
51928;BME280;37953;52.806;18.270;2024-01-27T03:56:00;100716.75;;;5.56;100.00
51928;BME280;37953;52.806;18.270;2024-01-27T03:58:30;100721.09;;;5.57;100.00
51928;BME280;37953;52.806;18.270;2024-01-27T04:00:57;100704.66;;;5.53;100.00
51928;BME280;37953;52.806;18.270;2024-01-27T04:03:24;100707.28;;;5.55;100.00
51928;BME280;37953;52.806;18.270;2024-01-27T04:05:50;100707.25;;;5.53;100.00
51928;BME280;37953;52.806;18.270;2024-01-27T04:08:19;100704.63;;;5.51;100.00
51928;BME280;37953;52.806;18.270;2024-01-27T04:10:44;100704.56;;;5.50;100.00
51928;BME280;37953;52.806;18.270;2024-01-27T04:13:11;100711.38;;;5.48;100.00
51928;BME280;37953;52.806;18.270;2024-01-27T04:15:37;100709.69;;;5.48;100.00
51928;BME280;37953;52.806;18.270;2024-01-27T04:18:07;100721.63;;;5.45;100.00
51928;BME280;37953;52.806;18.270;2024-01-27T04:20:34;100723.34;;;5.46;100.00
51928;BME280;37953;52.806;18.270;2024-01-27T04:23:01;100713.03;;;5.46;100.00
51928;BME280;37953;52.806;18.270;2024-01-27T04:25:28;100720.75;;;5.44;100.00
51928;BME280;37953;52.806;18.270;2024-01-27T04:27:57;100719.84;;;5.44;100.00
51928;BME280;37953;52.806;18.270;2024-01-27T04:30:23;100737.03;;;5.43;100.00
51928;BME280;37953;52.806;18.270;2024-01-27T04:32:49;100751.63;;;5.43;100.00
51928;BME280;37953;52.806;18.270;2024-01-27T04:35:15;100742.97;;;5.41;100.00
51928;BME280;37953;52.806;18.270;2024-01-27T04:37:42;100740.41;;;5.41;100.00
51928;BME280;37953;52.806;18.270;2024-01-27T04:40:19;100738.63;;;5.38;100.00
51928;BME280;37953;52.806;18.270;2024-01-27T04:42:48;100756.59;;;5.37;100.00
51928;BME280;37953;52.806;18.270;2024-01-27T04:45:14;100745.31;;;5.33;100.00
51928;BME280;37953;52.806;18.270;2024-01-27T04:47:41;100746.97;;;5.29;100.00
51928;BME280;37953;52.806;18.270;2024-01-27T04:50:07;100746.91;;;5.28;100.00
51928;BME280;37953;52.806;18.270;2024-01-27T04:52:33;100741.63;;;5.23;100.00
51928;BME280;37953;52.806;18.270;2024-01-27T04:54:59;100753.59;;;5.21;100.00
51928;BME280;37953;52.806;18.270;2024-01-27T04:57:25;100753.47;;;5.17;100.00
51928;BME280;37953;52.806;18.270;2024-01-27T04:59:51;100757.69;;;5.15;100.00
51928;BME280;37953;52.806;18.270;2024-01-27T05:02:20;100749.81;;;5.10;100.00
51928;BME280;37953;52.806;18.270;2024-01-27T05:04:46;100754.16;;;5.11;100.00
51928;BME280;37953;52.806;18.270;2024-01-27T05:07:12;100743.78;;;5.08;100.00
51928;BME280;37953;52.806;18.270;2024-01-27T05:09:38;100741.13;;;5.06;100.00
51928;BME280;37953;52.806;18.270;2024-01-27T05:12:04;100744.59;;;5.07;100.00
51928;BME280;37953;52.806;18.270;2024-01-27T05:14:30;100738.47;;;5.03;100.00
51928;BME280;37953;52.806;18.270;2024-01-27T05:16:56;100754.75;;;5.02;100.00
51928;BME280;37953;52.806;18.270;2024-01-27T05:19:22;100744.41;;;5.01;100.00
51928;BME280;37953;52.806;18.270;2024-01-27T05:21:49;100739.25;;;5.01;100.00
51928;BME280;37953;52.806;18.270;2024-01-27T05:24:15;100762.38;;;4.99;100.00
51928;BME280;37953;52.806;18.270;2024-01-27T05:26:41;100752.84;;;4.97;100.00
51928;BME280;37953;52.806;18.270;2024-01-27T05:29:07;100751.13;;;4.96;100.00
51928;BME280;37953;52.806;18.270;2024-01-27T05:31:34;100746.72;;;4.93;100.00
51928;BME280;37953;52.806;18.270;2024-01-27T05:34:10;100759.59;;;4.92;100.00
51928;BME280;37953;52.806;18.270;2024-01-27T05:36:36;100758.72;;;4.91;100.00
51928;BME280;37953;52.806;18.270;2024-01-27T05:39:02;100756.09;;;4.89;100.00
51928;BME280;37953;52.806;18.270;2024-01-27T05:41:32;100762.03;;;4.87;100.00
51928;BME280;37953;52.806;18.270;2024-01-27T05:43:58;100756.81;;;4.85;100.00
51928;BME280;37953;52.806;18.270;2024-01-27T05:46:25;100766.19;;;4.83;100.00
51928;BME280;37953;52.806;18.270;2024-01-27T05:48:51;100773.97;;;4.85;100.00
51928;BME280;37953;52.806;18.270;2024-01-27T05:51:20;100768.75;;;4.83;100.00
51928;BME280;37953;52.806;18.270;2024-01-27T05:53:46;100766.97;;;4.81;100.00
51928;BME280;37953;52.806;18.270;2024-01-27T05:56:13;100760.00;;;4.78;100.00
51928;BME280;37953;52.806;18.270;2024-01-27T05:58:39;100763.47;;;4.79;100.00
51928;BME280;37953;52.806;18.270;2024-01-27T06:01:05;100776.28;;;4.77;100.00
51928;BME280;37953;52.806;18.270;2024-01-27T06:03:32;100772.00;;;4.78;100.00
51928;BME280;37953;52.806;18.270;2024-01-27T06:05:58;100772.00;;;4.78;100.00
51928;BME280;37953;52.806;18.270;2024-01-27T06:08:24;100772.88;;;4.78;100.00
51928;BME280;37953;52.806;18.270;2024-01-27T06:10:50;100776.28;;;4.77;100.00
51928;BME280;37953;52.806;18.270;2024-01-27T06:13:16;100778.88;;;4.77;100.00
51928;BME280;37953;52.806;18.270;2024-01-27T06:15:43;100783.97;;;4.76;100.00
51928;BME280;37953;52.806;18.270;2024-01-27T06:18:08;100764.22;;;4.75;100.00
51928;BME280;37953;52.806;18.270;2024-01-27T06:20:35;100782.22;;;4.75;100.00
51928;BME280;37953;52.806;18.270;2024-01-27T06:23:01;100778.78;;;4.74;100.00
51928;BME280;37953;52.806;18.270;2024-01-27T06:25:27;100791.66;;;4.74;100.00
51928;BME280;37953;52.806;18.270;2024-01-27T06:27:57;100785.59;;;4.74;100.00
51928;BME280;37953;52.806;18.270;2024-01-27T06:30:24;100800.19;;;4.73;100.00
51928;BME280;37953;52.806;18.270;2024-01-27T06:32:50;100804.47;;;4.73;100.00
51928;BME280;37953;52.806;18.270;2024-01-27T06:35:16;100804.47;;;4.73;100.00
51928;BME280;37953;52.806;18.270;2024-01-27T06:37:51;100817.28;;;4.71;100.00
51928;BME280;37953;52.806;18.270;2024-01-27T06:40:17;100808.56;;;4.67;100.00
51928;BME280;37953;52.806;18.270;2024-01-27T06:42:43;100812.00;;;4.66;100.00
51928;BME280;37953;52.806;18.270;2024-01-27T06:45:10;100825.66;;;4.65;100.00
51928;BME280;37953;52.806;18.270;2024-01-27T06:47:36;100828.22;;;4.64;100.00
51928;BME280;37953;52.806;18.270;2024-01-27T06:50:02;100843.66;;;4.64;100.00
51928;BME280;37953;52.806;18.270;2024-01-27T06:52:28;100835.94;;;4.64;100.00
51928;BME280;37953;52.806;18.270;2024-01-27T06:54:55;100847.91;;;4.63;100.00
51928;BME280;37953;52.806;18.270;2024-01-27T06:57:23;100845.19;;;4.59;100.00
51928;BME280;37953;52.806;18.270;2024-01-27T06:59:51;100847.66;;;4.56;100.00
51928;BME280;37953;52.806;18.270;2024-01-27T07:02:27;100848.53;;;4.56;100.00
51928;BME280;37953;52.806;18.270;2024-01-27T07:04:58;100851.81;;;4.52;100.00
51928;BME280;37953;52.806;18.270;2024-01-27T07:07:29;100852.66;;;4.51;100.00
51928;BME280;37953;52.806;18.270;2024-01-27T07:10:06;100856.91;;;4.51;100.00
51928;BME280;37953;52.806;18.270;2024-01-27T07:12:33;100855.22;;;4.51;100.00
51928;BME280;37953;52.806;18.270;2024-01-27T07:15:00;100872.41;;;4.52;100.00
51928;BME280;37953;52.806;18.270;2024-01-27T07:17:27;100873.25;;;4.51;100.00
51928;BME280;37953;52.806;18.270;2024-01-27T07:19:53;100883.47;;;4.49;100.00
51928;BME280;37953;52.806;18.270;2024-01-27T07:22:19;100893.81;;;4.51;100.00
51928;BME280;37953;52.806;18.270;2024-01-27T07:24:46;100883.47;;;4.49;100.00
51928;BME280;37953;52.806;18.270;2024-01-27T07:27:13;100897.25;;;4.52;100.00
51928;BME280;37953;52.806;18.270;2024-01-27T07:29:42;100904.16;;;4.53;100.00
51928;BME280;37953;52.806;18.270;2024-01-27T07:32:08;100910.13;;;4.52;100.00
51928;BME280;37953;52.806;18.270;2024-01-27T07:34:46;100918.78;;;4.54;100.00
51928;BME280;37953;52.806;18.270;2024-01-27T07:37:12;100917.91;;;4.53;100.00
51928;BME280;37953;52.806;18.270;2024-01-27T07:39:38;100937.66;;;4.54;100.00
51928;BME280;37953;52.806;18.270;2024-01-27T07:42:04;100937.72;;;4.56;100.00
51928;BME280;37953;52.806;18.270;2024-01-27T07:44:30;100950.56;;;4.56;100.00
51928;BME280;37953;52.806;18.270;2024-01-27T07:46:56;100956.66;;;4.58;100.00
51928;BME280;37953;52.806;18.270;2024-01-27T07:49:22;100961.81;;;4.58;100.00
51928;BME280;37953;52.806;18.270;2024-01-27T07:51:48;100961.03;;;4.60;100.00
51928;BME280;37953;52.806;18.270;2024-01-27T07:54:14;100972.19;;;4.61;100.00
51928;BME280;37953;52.806;18.270;2024-01-27T07:56:40;100977.34;;;4.61;100.00
51928;BME280;37953;52.806;18.270;2024-01-27T07:59:07;100982.47;;;4.61;100.00
51928;BME280;37953;52.806;18.270;2024-01-27T08:01:43;100992.00;;;4.63;100.00
51928;BME280;37953;52.806;18.270;2024-01-27T08:04:09;100987.69;;;4.62;100.00
51928;BME280;37953;52.806;18.270;2024-01-27T08:06:49;100995.50;;;4.65;100.00
51928;BME280;37953;52.806;18.270;2024-01-27T08:09:17;100987.75;;;4.64;100.00
51928;BME280;37953;52.806;18.270;2024-01-27T08:11:43;101003.19;;;4.64;100.00
51928;BME280;37953;52.806;18.270;2024-01-27T08:14:10;100999.72;;;4.63;100.00
51928;BME280;37953;52.806;18.270;2024-01-27T08:16:36;101004.94;;;4.65;100.00
51928;BME280;37953;52.806;18.270;2024-01-27T08:19:02;101005.78;;;4.65;100.00
51928;BME280;37953;52.806;18.270;2024-01-27T08:21:28;101023.81;;;4.65;100.00
51928;BME280;37953;52.806;18.270;2024-01-27T08:23:55;101027.28;;;4.66;100.00
51928;BME280;37953;52.806;18.270;2024-01-27T08:26:21;101031.59;;;4.67;100.00
51928;BME280;37953;52.806;18.270;2024-01-27T08:28:48;101037.59;;;4.67;100.00
51928;BME280;37953;52.806;18.270;2024-01-27T08:31:14;101035.94;;;4.68;100.00
51928;BME280;37953;52.806;18.270;2024-01-27T08:33:40;101041.88;;;4.67;100.00
51928;BME280;37953;52.806;18.270;2024-01-27T08:36:06;101041.88;;;4.67;100.00
51928;BME280;37953;52.806;18.270;2024-01-27T08:38:43;101047.88;;;4.66;100.00
51928;BME280;37953;52.806;18.270;2024-01-27T08:41:12;101047.91;;;4.67;100.00
51928;BME280;37953;52.806;18.270;2024-01-27T08:43:38;101056.47;;;4.66;100.00
51928;BME280;37953;52.806;18.270;2024-01-27T08:46:04;101055.53;;;4.64;100.00
51928;BME280;37953;52.806;18.270;2024-01-27T08:48:31;101070.09;;;4.64;100.00
51928;BME280;37953;52.806;18.270;2024-01-27T08:50:56;101072.69;;;4.64;100.00
51928;BME280;37953;52.806;18.270;2024-01-27T08:53:23;101078.56;;;4.61;100.00
51928;BME280;37953;52.806;18.270;2024-01-27T08:55:49;101094.13;;;4.64;100.00
51928;BME280;37953;52.806;18.270;2024-01-27T08:58:15;101102.72;;;4.65;100.00
51928;BME280;37953;52.806;18.270;2024-01-27T09:00:41;101099.28;;;4.64;100.00
51928;BME280;37953;52.806;18.270;2024-01-27T09:03:07;101107.88;;;4.65;100.00
51928;BME280;37953;52.806;18.270;2024-01-27T09:05:33;101114.66;;;4.63;100.00
51928;BME280;37953;52.806;18.270;2024-01-27T09:08:02;101117.28;;;4.64;100.00
51928;BME280;37953;52.806;18.270;2024-01-27T09:10:27;101124.25;;;4.67;100.00
51928;BME280;37953;52.806;18.270;2024-01-27T09:12:54;101125.06;;;4.66;100.00
51928;BME280;37953;52.806;18.270;2024-01-27T09:15:20;101129.38;;;4.67;100.00
51928;BME280;37953;52.806;18.270;2024-01-27T09:17:47;101130.25;;;4.67;100.00
51928;BME280;37953;52.806;18.270;2024-01-27T09:20:14;101140.63;;;4.69;100.00
51928;BME280;37953;52.806;18.270;2024-01-27T09:22:40;101128.59;;;4.68;100.00
51928;BME280;37953;52.806;18.270;2024-01-27T09:25:17;101139.91;;;4.73;100.00
51928;BME280;37953;52.806;18.270;2024-01-27T09:27:44;101139.81;;;4.70;100.00
51928;BME280;37953;52.806;18.270;2024-01-27T09:30:10;101149.41;;;4.74;100.00
51928;BME280;37953;52.806;18.270;2024-01-27T09:32:36;101145.16;;;4.76;100.00
51928;BME280;37953;52.806;18.270;2024-01-27T09:35:02;101157.28;;;4.79;100.00
51928;BME280;37953;52.806;18.270;2024-01-27T09:37:29;101154.72;;;4.79;100.00
51928;BME280;37953;52.806;18.270;2024-01-27T09:39:56;101159.91;;;4.80;100.00
51928;BME280;37953;52.806;18.270;2024-01-27T09:42:23;101166.06;;;4.84;100.00
51928;BME280;37953;52.806;18.270;2024-01-27T09:44:49;101176.34;;;4.84;100.00
51928;BME280;37953;52.806;18.270;2024-01-27T09:47:20;101172.38;;;4.92;100.00
51928;BME280;37953;52.806;18.270;2024-01-27T09:49:50;101185.16;;;4.90;100.00
51928;BME280;37953;52.806;18.270;2024-01-27T09:52:17;101195.44;;;4.89;100.00
51928;BME280;37953;52.806;18.270;2024-01-27T09:54:43;101196.31;;;4.89;100.00
51928;BME280;37953;52.806;18.270;2024-01-27T09:57:19;101195.47;;;4.90;100.00
51928;BME280;37953;52.806;18.270;2024-01-27T09:59:47;101192.88;;;4.89;100.00
51928;BME280;37953;52.806;18.270;2024-01-27T10:02:15;101201.47;;;4.89;100.00
51928;BME280;37953;52.806;18.270;2024-01-27T10:04:53;101214.44;;;4.93;100.00
51928;BME280;37953;52.806;18.270;2024-01-27T10:07:21;101211.84;;;4.93;100.00
51928;BME280;37953;52.806;18.270;2024-01-27T10:09:51;101227.31;;;4.93;100.00
51928;BME280;37953;52.806;18.270;2024-01-27T10:12:18;101227.31;;;4.93;100.00
51928;BME280;37953;52.806;18.270;2024-01-27T10:14:47;101239.31;;;4.92;100.00
51928;BME280;37953;52.806;18.270;2024-01-27T10:17:24;101230.81;;;4.95;100.00
51928;BME280;37953;52.806;18.270;2024-01-27T10:20:02;101241.13;;;4.95;100.00
51928;BME280;37953;52.806;18.270;2024-01-27T10:22:49;101243.75;;;4.96;100.00
51928;BME280;37953;52.806;18.270;2024-01-27T10:25:15;101248.84;;;4.95;100.00
51928;BME280;37953;52.806;18.270;2024-01-27T10:27:43;101253.13;;;4.94;100.00
51928;BME280;37953;52.806;18.270;2024-01-27T10:30:17;101259.97;;;4.94;100.00
51928;BME280;37953;52.806;18.270;2024-01-27T10:32:55;101265.06;;;4.92;100.00
51928;BME280;37953;52.806;18.270;2024-01-27T10:35:43;101264.19;;;4.92;100.00
51928;BME280;37953;52.806;18.270;2024-01-27T10:38:10;101264.13;;;4.90;100.00
51928;BME280;37953;52.806;18.270;2024-01-27T10:40:36;101268.41;;;4.89;100.00
51928;BME280;37953;52.806;18.270;2024-01-27T10:43:05;101263.19;;;4.88;100.00
51928;BME280;37953;52.806;18.270;2024-01-27T10:45:36;101267.53;;;4.89;100.00
51928;BME280;37953;52.806;18.270;2024-01-27T10:48:03;101266.69;;;4.90;100.00
51928;BME280;37953;52.806;18.270;2024-01-27T10:50:40;101277.94;;;4.92;100.00
51928;BME280;37953;52.806;18.270;2024-01-27T10:53:25;101286.53;;;4.93;100.00
51928;BME280;37953;52.806;18.270;2024-01-27T10:55:57;101286.47;;;4.91;100.00
51928;BME280;37953;52.806;18.270;2024-01-27T10:58:24;101289.97;;;4.93;100.00
51928;BME280;37953;52.806;18.270;2024-01-27T11:00:50;101299.47;;;4.94;100.00
51928;BME280;37953;52.806;18.270;2024-01-27T11:03:28;101304.69;;;4.96;100.00
51928;BME280;37953;52.806;18.270;2024-01-27T11:05:55;101306.41;;;4.97;100.00
51928;BME280;37953;52.806;18.270;2024-01-27T11:08:24;101314.28;;;5.00;100.00
51928;BME280;37953;52.806;18.270;2024-01-27T11:10:58;101322.00;;;5.00;100.00
51928;BME280;37953;52.806;18.270;2024-01-27T11:13:25;101317.72;;;5.00;100.00
51928;BME280;37953;52.806;18.270;2024-01-27T11:16:01;101318.66;;;5.02;100.00
51928;BME280;37953;52.806;18.270;2024-01-27T11:18:38;101317.91;;;5.05;100.00
51928;BME280;37953;52.806;18.270;2024-01-27T11:21:04;101326.47;;;5.04;100.00
51928;BME280;37953;52.806;18.270;2024-01-27T11:23:34;101338.56;;;5.06;100.00
51928;BME280;37953;52.806;18.270;2024-01-27T11:26:04;101334.59;;;5.15;100.00
51928;BME280;37953;52.806;18.270;2024-01-27T11:28:31;101336.97;;;5.10;100.00
51928;BME280;37953;52.806;18.270;2024-01-27T11:30:57;101346.41;;;5.09;100.00
51928;BME280;37953;52.806;18.270;2024-01-27T11:33:26;101355.00;;;5.10;100.00
51928;BME280;37953;52.806;18.270;2024-01-27T11:36:02;101356.84;;;5.13;100.00
51928;BME280;37953;52.806;18.270;2024-01-27T11:38:30;101362.00;;;5.13;100.00
51928;BME280;37953;52.806;18.270;2024-01-27T11:40:56;101374.91;;;5.14;100.00
51928;BME280;37953;52.806;18.270;2024-01-27T11:43:22;101372.34;;;5.14;100.00
51928;BME280;37953;52.806;18.270;2024-01-27T11:45:58;101365.53;;;5.16;100.00
51928;BME280;37953;52.806;18.270;2024-01-27T11:48:24;101374.19;;;5.17;100.00
51928;BME280;37953;52.806;18.270;2024-01-27T11:51:05;101380.31;;;5.20;100.00
51928;BME280;37953;52.806;18.270;2024-01-27T11:53:31;101382.00;;;5.20;100.00
51928;BME280;37953;52.806;18.270;2024-01-27T11:55:57;101393.19;;;5.20;100.00
51928;BME280;37953;52.806;18.270;2024-01-27T11:58:24;101398.41;;;5.22;100.00
51928;BME280;37953;52.806;18.270;2024-01-27T12:00:51;101404.38;;;5.21;100.00
51928;BME280;37953;52.806;18.270;2024-01-27T12:03:20;101409.66;;;5.24;100.00
51928;BME280;37953;52.806;18.270;2024-01-27T12:05:47;101419.09;;;5.23;100.00
51928;BME280;37953;52.806;18.270;2024-01-27T12:08:13;101423.47;;;5.26;100.00
51928;BME280;37953;52.806;18.270;2024-01-27T12:10:39;101419.19;;;5.26;100.00
51928;BME280;37953;52.806;18.270;2024-01-27T12:13:05;101426.16;;;5.29;100.00
51928;BME280;37953;52.806;18.270;2024-01-27T12:15:31;101424.47;;;5.29;100.00
51928;BME280;37953;52.806;18.270;2024-01-27T12:17:57;101430.56;;;5.32;100.00
51928;BME280;37953;52.806;18.270;2024-01-27T12:20:24;101435.75;;;5.33;100.00
51928;BME280;37953;52.806;18.270;2024-01-27T12:23:06;101439.28;;;5.35;100.00
51928;BME280;37953;52.806;18.270;2024-01-27T12:25:33;101445.38;;;5.37;100.00
51928;BME280;37953;52.806;18.270;2024-01-27T12:28:05;101453.19;;;5.39;100.00
51928;BME280;37953;52.806;18.270;2024-01-27T12:30:34;101457.53;;;5.40;100.00
51928;BME280;37953;52.806;18.270;2024-01-27T12:33:00;101465.25;;;5.40;100.00
51928;BME280;37953;52.806;18.270;2024-01-27T12:35:28;101469.66;;;5.42;100.00
51928;BME280;37953;52.806;18.270;2024-01-27T12:37:55;101472.25;;;5.44;100.00
51928;BME280;37953;52.806;18.270;2024-01-27T12:40:23;101486.09;;;5.46;100.00
51928;BME280;37953;52.806;18.270;2024-01-27T12:42:50;101488.66;;;5.46;100.00